sensor_id;sensor_type;location;lat;lon;timestamp;pressure;altitude;pressure_sealevel;temperature;humidity
69713;BME280;56980;51.826;4.424;2022-11-15T00:00:05;100901.34;;;9.30;84.86
69713;BME280;56980;51.826;4.424;2022-11-15T00:02:30;100857.97;;;9.05;84.70
69713;BME280;56980;51.826;4.424;2022-11-15T00:04:55;100840.16;;;8.91;84.84
69713;BME280;56980;51.826;4.424;2022-11-15T00:07:21;100827.59;;;8.85;84.64
69713;BME280;56980;51.826;4.424;2022-11-15T00:09:46;100891.28;;;9.31;84.56
69713;BME280;56980;51.826;4.424;2022-11-15T00:12:12;100892.03;;;9.31;84.90
69713;BME280;56980;51.826;4.424;2022-11-15T00:14:37;100900.16;;;9.31;84.67
69713;BME280;56980;51.826;4.424;2022-11-15T00:17:03;100826.19;;;8.80;84.98
69713;BME280;56980;51.826;4.424;2022-11-15T00:19:28;100881.41;;;9.24;85.09
69713;BME280;56980;51.826;4.424;2022-11-15T00:21:53;100833.16;;;8.94;85.18
69713;BME280;56980;51.826;4.424;2022-11-15T00:24:19;100850.97;;;9.07;84.93
69713;BME280;56980;51.826;4.424;2022-11-15T00:26:44;100888.91;;;9.33;85.19
69713;BME280;56980;51.826;4.424;2022-11-15T00:29:10;100886.53;;;9.35;85.14
69713;BME280;56980;51.826;4.424;2022-11-15T00:31:35;100878.19;;;9.29;85.30
69713;BME280;56980;51.826;4.424;2022-11-15T00:34:00;100874.97;;;9.34;85.32
69713;BME280;56980;51.826;4.424;2022-11-15T00:36:26;100850.78;;;9.14;85.67
69713;BME280;56980;51.826;4.424;2022-11-15T00:38:51;100880.09;;;9.45;85.37
69713;BME280;56980;51.826;4.424;2022-11-15T00:41:16;100878.75;;;9.37;85.54
69713;BME280;56980;51.826;4.424;2022-11-15T00:43:42;100877.16;;;9.39;85.54
69713;BME280;56980;51.826;4.424;2022-11-15T00:46:09;100869.94;;;9.49;85.55
69713;BME280;56980;51.826;4.424;2022-11-15T00:48:35;100813.53;;;9.06;85.32
69713;BME280;56980;51.826;4.424;2022-11-15T00:51:00;100875.44;;;9.45;86.25
69713;BME280;56980;51.826;4.424;2022-11-15T00:53:26;100850.28;;;9.32;85.68
69713;BME280;56980;51.826;4.424;2022-11-15T00:55:51;100813.69;;;9.15;85.70
69713;BME280;56980;51.826;4.424;2022-11-15T00:58:17;100859.19;;;9.45;85.46
69713;BME280;56980;51.826;4.424;2022-11-15T01:00:42;100876.34;;;9.55;85.84
69713;BME280;56980;51.826;4.424;2022-11-15T01:03:08;100837.53;;;9.33;85.86
69713;BME280;56980;51.826;4.424;2022-11-15T01:05:33;100800.66;;;9.10;85.69
69713;BME280;56980;51.826;4.424;2022-11-15T01:07:59;100793.25;;;9.14;85.66
69713;BME280;56980;51.826;4.424;2022-11-15T01:10:24;100836.38;;;9.46;85.61
69713;BME280;56980;51.826;4.424;2022-11-15T01:12:51;100865.31;;;9.62;85.46
69713;BME280;56980;51.826;4.424;2022-11-15T01:15:16;100870.28;;;9.64;85.61
69713;BME280;56980;51.826;4.424;2022-11-15T01:17:42;100851.34;;;9.64;85.63
69713;BME280;56980;51.826;4.424;2022-11-15T01:20:08;100858.69;;;9.63;85.50
69713;BME280;56980;51.826;4.424;2022-11-15T01:22:34;100868.47;;;9.73;85.58
69713;BME280;56980;51.826;4.424;2022-11-15T01:24:59;100861.13;;;9.74;85.56
69713;BME280;56980;51.826;4.424;2022-11-15T01:27:24;100852.25;;;9.73;85.47
69713;BME280;56980;51.826;4.424;2022-11-15T01:29:50;100844.53;;;9.72;85.19
69713;BME280;56980;51.826;4.424;2022-11-15T01:32:15;100846.94;;;9.70;85.88
69713;BME280;56980;51.826;4.424;2022-11-15T01:34:41;100844.53;;;9.72;85.64
69713;BME280;56980;51.826;4.424;2022-11-15T01:37:06;100841.53;;;9.70;85.78
69713;BME280;56980;51.826;4.424;2022-11-15T01:39:32;100841.31;;;9.77;86.02
69713;BME280;56980;51.826;4.424;2022-11-15T01:41:57;100809.34;;;9.59;86.77
69713;BME280;56980;51.826;4.424;2022-11-15T01:44:40;100832.34;;;9.92;86.34
69713;BME280;56980;51.826;4.424;2022-11-15T01:47:13;100817.84;;;9.86;86.45
69713;BME280;56980;51.826;4.424;2022-11-15T01:49:50;100826.84;;;9.96;86.19
69713;BME280;56980;51.826;4.424;2022-11-15T01:52:19;100822.41;;;10.02;86.45
69713;BME280;56980;51.826;4.424;2022-11-15T01:54:47;100788.69;;;9.78;86.60
69713;BME280;56980;51.826;4.424;2022-11-15T01:57:13;100786.88;;;9.87;86.42
69713;BME280;56980;51.826;4.424;2022-11-15T01:59:42;100777.78;;;9.81;86.31
69713;BME280;56980;51.826;4.424;2022-11-15T02:02:08;100814.91;;;10.06;86.23
69713;BME280;56980;51.826;4.424;2022-11-15T02:04:39;100776.81;;;9.88;86.88
69713;BME280;56980;51.826;4.424;2022-11-15T02:07:06;100808.66;;;10.09;87.00
69713;BME280;56980;51.826;4.424;2022-11-15T02:09:35;100784.28;;;9.97;87.14
69713;BME280;56980;51.826;4.424;2022-11-15T02:12:01;100793.59;;;10.08;87.06
69713;BME280;56980;51.826;4.424;2022-11-15T02:14:28;100808.22;;;10.23;86.75
69713;BME280;56980;51.826;4.424;2022-11-15T02:23:09;100803.84;;;10.39;87.10
69713;BME280;56980;51.826;4.424;2022-11-15T02:25:46;100782.97;;;10.26;88.15
69713;BME280;56980;51.826;4.424;2022-11-15T02:28:34;100783.72;;;10.40;87.57
69713;BME280;56980;51.826;4.424;2022-11-15T02:34:08;100778.16;;;10.56;88.78
69713;BME280;56980;51.826;4.424;2022-11-15T02:36:40;100785.81;;;10.70;88.18
69713;BME280;56980;51.826;4.424;2022-11-15T02:39:18;100781.88;;;10.71;88.65
69713;BME280;56980;51.826;4.424;2022-11-15T02:41:47;100780.03;;;10.81;88.38
69713;BME280;56980;51.826;4.424;2022-11-15T02:44:24;100733.72;;;10.53;89.82
69713;BME280;56980;51.826;4.424;2022-11-15T02:46:57;100778.16;;;10.90;89.57
69713;BME280;56980;51.826;4.424;2022-11-15T02:49:47;100767.31;;;10.90;89.79
69713;BME280;56980;51.826;4.424;2022-11-15T02:52:17;100777.91;;;10.97;89.40
69713;BME280;56980;51.826;4.424;2022-11-15T02:54:52;100768.28;;;11.05;90.18
69713;BME280;56980;51.826;4.424;2022-11-15T02:57:19;100763.81;;;11.11;89.35
69713;BME280;56980;51.826;4.424;2022-11-15T03:00:07;100737.22;;;10.97;89.25
69713;BME280;56980;51.826;4.424;2022-11-15T03:08:29;100746.94;;;11.07;89.58
69713;BME280;56980;51.826;4.424;2022-11-15T03:11:19;100756.06;;;11.23;89.86
69713;BME280;56980;51.826;4.424;2022-11-15T03:16:24;100770.06;;;11.43;89.41
69713;BME280;56980;51.826;4.424;2022-11-15T03:19:02;100750.13;;;11.37;89.15
69713;BME280;56980;51.826;4.424;2022-11-15T03:21:31;100751.66;;;11.38;88.99
69713;BME280;56980;51.826;4.424;2022-11-15T03:23:58;100724.13;;;11.27;88.37
69713;BME280;56980;51.826;4.424;2022-11-15T03:26:27;100764.19;;;11.44;88.83
69713;BME280;56980;51.826;4.424;2022-11-15T03:28:58;100771.31;;;11.51;88.44
69713;BME280;56980;51.826;4.424;2022-11-15T03:31:29;100743.13;;;11.27;88.73
69713;BME280;56980;51.826;4.424;2022-11-15T03:34:29;100769.91;;;11.46;88.64
69713;BME280;56980;51.826;4.424;2022-11-15T03:36:56;100771.44;;;11.47;88.41
69713;BME280;56980;51.826;4.424;2022-11-15T03:39:23;100780.50;;;11.53;88.19
69713;BME280;56980;51.826;4.424;2022-11-15T03:44:45;100776.84;;;11.47;89.22
69713;BME280;56980;51.826;4.424;2022-11-15T03:47:23;100766.31;;;11.49;88.61
69713;BME280;56980;51.826;4.424;2022-11-15T03:49:52;100760.72;;;11.44;88.43
69713;BME280;56980;51.826;4.424;2022-11-15T03:52:21;100760.75;;;11.53;88.19
69713;BME280;56980;51.826;4.424;2022-11-15T03:54:55;100763.13;;;11.42;88.52
69713;BME280;56980;51.826;4.424;2022-11-15T03:57:21;100768.78;;;11.57;88.31
69713;BME280;56980;51.826;4.424;2022-11-15T03:59:46;100734.13;;;11.39;87.82
69713;BME280;56980;51.826;4.424;2022-11-15T04:02:13;100770.13;;;11.61;87.94
69713;BME280;56980;51.826;4.424;2022-11-15T04:04:38;100749.22;;;11.40;88.36
69713;BME280;56980;51.826;4.424;2022-11-15T04:07:04;100767.25;;;11.56;88.31
69713;BME280;56980;51.826;4.424;2022-11-15T04:09:30;100730.97;;;11.31;88.26
69713;BME280;56980;51.826;4.424;2022-11-15T04:11:55;100761.81;;;11.56;88.70
69713;BME280;56980;51.826;4.424;2022-11-15T04:14:20;100737.44;;;11.34;88.12
69713;BME280;56980;51.826;4.424;2022-11-15T04:16:46;100740.56;;;11.54;87.98
69713;BME280;56980;51.826;4.424;2022-11-15T04:19:11;100751.47;;;11.63;88.17
69713;BME280;56980;51.826;4.424;2022-11-15T04:21:55;100740.28;;;11.61;87.60
69713;BME280;56980;51.826;4.424;2022-11-15T04:24:39;100746.41;;;11.52;87.78
69713;BME280;56980;51.826;4.424;2022-11-15T04:27:04;100747.41;;;11.68;87.81
69713;BME280;56980;51.826;4.424;2022-11-15T04:29:30;100733.69;;;11.40;88.06
69713;BME280;56980;51.826;4.424;2022-11-15T04:32:03;100763.50;;;11.62;87.77
69713;BME280;56980;51.826;4.424;2022-11-15T04:34:28;100704.00;;;11.37;87.62
69713;BME280;56980;51.826;4.424;2022-11-15T04:36:54;100755.09;;;11.69;87.30
69713;BME280;56980;51.826;4.424;2022-11-15T04:39:41;100724.38;;;11.41;87.19
69713;BME280;56980;51.826;4.424;2022-11-15T04:42:07;100735.38;;;11.38;87.35
69713;BME280;56980;51.826;4.424;2022-11-15T04:44:33;100763.19;;;11.60;87.52
69713;BME280;56980;51.826;4.424;2022-11-15T04:46:58;100734.94;;;11.18;88.09
69713;BME280;56980;51.826;4.424;2022-11-15T04:49:24;100773.56;;;11.52;87.51
69713;BME280;56980;51.826;4.424;2022-11-15T04:51:49;100737.75;;;11.36;87.53
69713;BME280;56980;51.826;4.424;2022-11-15T04:54:15;100781.16;;;11.58;87.66
69713;BME280;56980;51.826;4.424;2022-11-15T05:00:08;100780.38;;;11.57;87.84
69713;BME280;56980;51.826;4.424;2022-11-15T05:02:34;100773.56;;;11.52;87.57
69713;BME280;56980;51.826;4.424;2022-11-15T05:05:35;100772.38;;;11.53;87.58
69713;BME280;56980;51.826;4.424;2022-11-15T05:08:01;100783.66;;;11.74;86.94
69713;BME280;56980;51.826;4.424;2022-11-15T05:10:26;100749.53;;;11.42;87.47
69713;BME280;56980;51.826;4.424;2022-11-15T05:12:51;100780.41;;;11.66;87.29
69713;BME280;56980;51.826;4.424;2022-11-15T05:15:17;100776.81;;;11.69;87.27
69713;BME280;56980;51.826;4.424;2022-11-15T05:17:42;100744.34;;;11.57;86.74
69713;BME280;56980;51.826;4.424;2022-11-15T05:20:08;100775.44;;;11.65;86.98
69713;BME280;56980;51.826;4.424;2022-11-15T05:22:34;100744.16;;;11.51;86.96
69713;BME280;56980;51.826;4.424;2022-11-15T05:24:59;100773.78;;;11.67;86.83
69713;BME280;56980;51.826;4.424;2022-11-15T05:27:24;100764.09;;;11.57;87.02
69713;BME280;56980;51.826;4.424;2022-11-15T05:30:02;100708.75;;;11.24;86.87
69713;BME280;56980;51.826;4.424;2022-11-15T05:32:27;100739.88;;;11.41;86.18
69713;BME280;56980;51.826;4.424;2022-11-15T05:34:54;100732.00;;;11.34;86.33
69713;BME280;56980;51.826;4.424;2022-11-15T05:37:20;100720.97;;;11.28;86.37
69713;BME280;56980;51.826;4.424;2022-11-15T05:39:45;100756.41;;;11.56;86.13
69713;BME280;56980;51.826;4.424;2022-11-15T05:42:15;100732.59;;;11.29;85.99
69713;BME280;56980;51.826;4.424;2022-11-15T05:44:44;100739.78;;;11.23;86.40
69713;BME280;56980;51.826;4.424;2022-11-15T05:47:16;100731.47;;;11.17;86.30
69713;BME280;56980;51.826;4.424;2022-11-15T05:49:44;100779.38;;;11.64;85.82
69713;BME280;56980;51.826;4.424;2022-11-15T05:52:15;100778.38;;;11.48;85.87
69713;BME280;56980;51.826;4.424;2022-11-15T05:54:42;100765.75;;;11.33;86.21
69713;BME280;56980;51.826;4.424;2022-11-15T05:57:08;100786.34;;;11.43;85.92
69713;BME280;56980;51.826;4.424;2022-11-15T05:59:34;100784.56;;;11.49;85.63
69713;BME280;56980;51.826;4.424;2022-11-15T06:02:00;100765.00;;;11.32;85.33
69713;BME280;56980;51.826;4.424;2022-11-15T06:04:25;100761.25;;;11.08;85.79
69713;BME280;56980;51.826;4.424;2022-11-15T06:06:51;100795.06;;;11.38;85.49
69713;BME280;56980;51.826;4.424;2022-11-15T06:09:16;100747.78;;;11.04;84.84
69713;BME280;56980;51.826;4.424;2022-11-15T06:11:42;100736.78;;;10.99;84.79
69713;BME280;56980;51.826;4.424;2022-11-15T06:14:07;100771.94;;;11.11;85.25
69713;BME280;56980;51.826;4.424;2022-11-15T06:16:32;100794.72;;;11.36;84.61
69713;BME280;56980;51.826;4.424;2022-11-15T06:18:58;100730.66;;;10.86;84.57
69713;BME280;56980;51.826;4.424;2022-11-15T06:21:23;100748.19;;;10.94;84.33
69713;BME280;56980;51.826;4.424;2022-11-15T06:23:49;100741.25;;;10.93;84.30
69713;BME280;56980;51.826;4.424;2022-11-15T06:26:14;100781.78;;;11.18;84.00
69713;BME280;56980;51.826;4.424;2022-11-15T06:28:40;100783.56;;;11.12;84.09
69713;BME280;56980;51.826;4.424;2022-11-15T06:31:07;100756.22;;;10.97;83.98
69713;BME280;56980;51.826;4.424;2022-11-15T06:33:33;100799.78;;;11.25;83.82
69713;BME280;56980;51.826;4.424;2022-11-15T06:36:06;100785.47;;;11.24;83.52
69713;BME280;56980;51.826;4.424;2022-11-15T06:38:32;100797.06;;;11.25;83.48
69713;BME280;56980;51.826;4.424;2022-11-15T06:41:03;100797.94;;;11.22;83.43
69713;BME280;56980;51.826;4.424;2022-11-15T06:43:28;100795.69;;;11.20;83.17
69713;BME280;56980;51.826;4.424;2022-11-15T06:45:54;100744.34;;;10.82;83.30
69713;BME280;56980;51.826;4.424;2022-11-15T06:48:19;100795.16;;;11.12;83.21
69713;BME280;56980;51.826;4.424;2022-11-15T06:50:53;100785.84;;;11.13;82.89
69713;BME280;56980;51.826;4.424;2022-11-15T06:53:19;100809.69;;;11.19;83.21
69713;BME280;56980;51.826;4.424;2022-11-15T06:55:45;100787.84;;;11.00;82.84
69713;BME280;56980;51.826;4.424;2022-11-15T06:58:10;100758.94;;;10.85;83.19
69713;BME280;56980;51.826;4.424;2022-11-15T07:00:36;100747.31;;;10.75;82.63
69713;BME280;56980;51.826;4.424;2022-11-15T07:03:01;100803.56;;;11.05;82.93
69713;BME280;56980;51.826;4.424;2022-11-15T07:05:27;100812.19;;;11.13;82.70
69713;BME280;56980;51.826;4.424;2022-11-15T07:07:54;100786.34;;;10.99;82.18
69713;BME280;56980;51.826;4.424;2022-11-15T07:10:21;100807.22;;;11.11;82.23
69713;BME280;56980;51.826;4.424;2022-11-15T07:12:49;100781.81;;;10.96;82.04
69713;BME280;56980;51.826;4.424;2022-11-15T07:15:16;100741.78;;;10.66;82.30
69713;BME280;56980;51.826;4.424;2022-11-15T07:17:43;100742.38;;;10.61;82.44
69713;BME280;56980;51.826;4.424;2022-11-15T07:20:15;100776.50;;;10.93;82.54
69713;BME280;56980;51.826;4.424;2022-11-15T07:22:44;100805.63;;;11.01;82.54
69713;BME280;56980;51.826;4.424;2022-11-15T07:25:11;100785.72;;;10.95;82.86
69713;BME280;56980;51.826;4.424;2022-11-15T07:27:37;100807.22;;;11.11;82.65
69713;BME280;56980;51.826;4.424;2022-11-15T07:30:03;100811.69;;;11.05;82.33
69713;BME280;56980;51.826;4.424;2022-11-15T07:32:29;100813.97;;;11.07;82.67
69713;BME280;56980;51.826;4.424;2022-11-15T07:34:54;100761.63;;;10.76;82.33
69713;BME280;56980;51.826;4.424;2022-11-15T07:37:19;100808.97;;;11.05;82.29
69713;BME280;56980;51.826;4.424;2022-11-15T07:39:45;100771.13;;;10.80;81.87
69713;BME280;56980;51.826;4.424;2022-11-15T07:42:10;100804.00;;;11.04;82.22
69713;BME280;56980;51.826;4.424;2022-11-15T07:44:55;100797.19;;;10.99;81.96
69713;BME280;56980;51.826;4.424;2022-11-15T07:47:20;100784.19;;;10.94;82.10
69713;BME280;56980;51.826;4.424;2022-11-15T07:49:46;100788.53;;;10.92;81.75
69713;BME280;56980;51.826;4.424;2022-11-15T07:52:12;100789.22;;;10.83;82.16
69713;BME280;56980;51.826;4.424;2022-11-15T07:54:38;100778.91;;;10.91;81.96
69713;BME280;56980;51.826;4.424;2022-11-15T07:57:04;100785.47;;;11.02;81.89
69713;BME280;56980;51.826;4.424;2022-11-15T07:59:30;100759.59;;;10.89;81.38
69713;BME280;56980;51.826;4.424;2022-11-15T08:01:55;100767.16;;;10.94;81.49
69713;BME280;56980;51.826;4.424;2022-11-15T08:04:20;100747.38;;;10.84;81.79
69713;BME280;56980;51.826;4.424;2022-11-15T08:06:46;100755.50;;;10.84;82.18
69713;BME280;56980;51.826;4.424;2022-11-15T08:09:11;100757.66;;;10.89;82.24
69713;BME280;56980;51.826;4.424;2022-11-15T08:11:37;100767.31;;;10.90;82.38
69713;BME280;56980;51.826;4.424;2022-11-15T08:14:02;100768.78;;;10.91;82.49
69713;BME280;56980;51.826;4.424;2022-11-15T08:16:27;100777.25;;;10.93;82.66
69713;BME280;56980;51.826;4.424;2022-11-15T08:18:53;100779.72;;;11.00;82.26
69713;BME280;56980;51.826;4.424;2022-11-15T08:21:19;100777.91;;;10.97;82.00
69713;BME280;56980;51.826;4.424;2022-11-15T08:23:45;100776.13;;;11.03;81.89
69713;BME280;56980;51.826;4.424;2022-11-15T08:26:11;100749.88;;;11.00;81.53
69713;BME280;56980;51.826;4.424;2022-11-15T08:28:36;100741.13;;;10.96;82.07
69713;BME280;56980;51.826;4.424;2022-11-15T08:31:03;100702.50;;;10.83;81.88
69713;BME280;56980;51.826;4.424;2022-11-15T08:33:29;100741.06;;;11.09;82.40
69713;BME280;56980;51.826;4.424;2022-11-15T08:35:59;100712.88;;;10.85;82.14
69713;BME280;56980;51.826;4.424;2022-11-15T08:38:25;100735.75;;;11.05;82.01
69713;BME280;56980;51.826;4.424;2022-11-15T08:41:00;100740.31;;;11.08;81.83
69713;BME280;56980;51.826;4.424;2022-11-15T08:43:26;100727.31;;;11.03;81.94
69713;BME280;56980;51.826;4.424;2022-11-15T08:45:51;100740.41;;;11.05;81.96
69713;BME280;56980;51.826;4.424;2022-11-15T08:48:20;100718.09;;;11.01;81.25
69713;BME280;56980;51.826;4.424;2022-11-15T08:50:45;100744.66;;;11.06;81.75
69713;BME280;56980;51.826;4.424;2022-11-15T08:53:12;100746.34;;;11.12;81.33
69713;BME280;56980;51.826;4.424;2022-11-15T08:55:38;100755.38;;;11.09;81.30
69713;BME280;56980;51.826;4.424;2022-11-15T08:58:13;100753.94;;;11.18;81.29
69713;BME280;56980;51.826;4.424;2022-11-15T09:00:38;100743.25;;;11.23;81.03
69713;BME280;56980;51.826;4.424;2022-11-15T09:03:04;100757.88;;;11.26;81.17
69713;BME280;56980;51.826;4.424;2022-11-15T09:05:31;100748.50;;;11.18;81.17
69713;BME280;56980;51.826;4.424;2022-11-15T09:07:56;100732.50;;;11.10;80.93
69713;BME280;56980;51.826;4.424;2022-11-15T09:10:21;100711.94;;;11.00;81.03
69713;BME280;56980;51.826;4.424;2022-11-15T09:12:47;100705.00;;;10.99;80.43
69713;BME280;56980;51.826;4.424;2022-11-15T09:15:14;100755.56;;;11.37;80.29
69713;BME280;56980;51.826;4.424;2022-11-15T09:17:40;100747.09;;;11.35;80.22
69713;BME280;56980;51.826;4.424;2022-11-15T09:20:06;100745.91;;;11.36;79.90
69713;BME280;56980;51.826;4.424;2022-11-15T09:22:32;100735.88;;;11.24;80.11
69713;BME280;56980;51.826;4.424;2022-11-15T09:24:58;100742.28;;;11.39;80.24
69713;BME280;56980;51.826;4.424;2022-11-15T09:27:30;100744.56;;;11.40;79.74
69713;BME280;56980;51.826;4.424;2022-11-15T09:29:57;100734.81;;;11.52;79.54
69713;BME280;56980;51.826;4.424;2022-11-15T09:32:22;100736.47;;;11.49;79.40
69713;BME280;56980;51.826;4.424;2022-11-15T09:34:49;100731.66;;;11.53;79.19
69713;BME280;56980;51.826;4.424;2022-11-15T09:37:14;100736.06;;;11.60;79.09
69713;BME280;56980;51.826;4.424;2022-11-15T09:39:40;100736.97;;;11.57;78.72
69713;BME280;56980;51.826;4.424;2022-11-15T09:45:22;100713.81;;;11.74;77.94
69713;BME280;56980;51.826;4.424;2022-11-15T09:50:40;100703.53;;;11.69;77.67
69713;BME280;56980;51.826;4.424;2022-11-15T09:56:17;100698.28;;;11.75;77.28
69713;BME280;56980;51.826;4.424;2022-11-15T10:04:37;100710.09;;;11.90;76.88
69713;BME280;56980;51.826;4.424;2022-11-15T10:07:37;100706.66;;;11.99;76.83
69713;BME280;56980;51.826;4.424;2022-11-15T10:10:17;100700.31;;;12.02;76.61
69713;BME280;56980;51.826;4.424;2022-11-15T10:12:49;100706.97;;;12.10;76.29
69713;BME280;56980;51.826;4.424;2022-11-15T10:15:17;100679.94;;;12.06;75.80
69713;BME280;56980;51.826;4.424;2022-11-15T10:17:58;100694.16;;;12.19;75.49
69713;BME280;56980;51.826;4.424;2022-11-15T10:20:30;100679.09;;;12.18;74.80
69713;BME280;56980;51.826;4.424;2022-11-15T10:23:04;100669.25;;;12.21;74.45
69713;BME280;56980;51.826;4.424;2022-11-15T10:25:33;100645.72;;;12.18;74.63
69713;BME280;56980;51.826;4.424;2022-11-15T10:28:09;100672.13;;;12.26;74.15
69713;BME280;56980;51.826;4.424;2022-11-15T10:30:48;100670.47;;;12.29;73.90
69713;BME280;56980;51.826;4.424;2022-11-15T10:33:35;100657.78;;;12.17;74.02
69713;BME280;56980;51.826;4.424;2022-11-15T10:36:15;100663.81;;;12.39;73.11
69713;BME280;56980;51.826;4.424;2022-11-15T10:41:20;100657.47;;;12.33;72.79
69713;BME280;56980;51.826;4.424;2022-11-15T10:44:08;100650.41;;;12.45;72.83
69713;BME280;56980;51.826;4.424;2022-11-15T10:46:39;100637.84;;;12.47;72.08
69713;BME280;56980;51.826;4.424;2022-11-15T10:49:20;100631.50;;;12.59;72.26
69713;BME280;56980;51.826;4.424;2022-11-15T10:52:04;100615.78;;;12.54;72.25
69713;BME280;56980;51.826;4.424;2022-11-15T10:55:12;100632.41;;;12.56;72.22
69713;BME280;56980;51.826;4.424;2022-11-15T10:58:04;100624.22;;;12.75;71.88
69713;BME280;56980;51.826;4.424;2022-11-15T11:00:34;100617.56;;;12.76;71.04
69713;BME280;56980;51.826;4.424;2022-11-15T11:03:02;100608.22;;;12.67;71.08
69713;BME280;56980;51.826;4.424;2022-11-15T11:05:39;100620.56;;;12.87;70.42
69713;BME280;56980;51.826;4.424;2022-11-15T11:08:22;100605.94;;;12.84;70.37
69713;BME280;56980;51.826;4.424;2022-11-15T11:10:54;100598.81;;;12.87;70.30
69713;BME280;56980;51.826;4.424;2022-11-15T11:13:25;100596.38;;;12.89;70.16
69713;BME280;56980;51.826;4.424;2022-11-15T11:18:28;100582.34;;;12.90;69.97
69713;BME280;56980;51.826;4.424;2022-11-15T11:20:58;100582.66;;;12.83;70.24
69713;BME280;56980;51.826;4.424;2022-11-15T11:23:38;100578.88;;;12.81;70.14
69713;BME280;56980;51.826;4.424;2022-11-15T11:26:35;100575.19;;;13.02;69.97
69713;BME280;56980;51.826;4.424;2022-11-15T11:38:04;100547.91;;;13.20;69.07
69713;BME280;56980;51.826;4.424;2022-11-15T11:43:48;100539.47;;;13.42;68.63
69713;BME280;56980;51.826;4.424;2022-11-15T11:48:48;100511.44;;;13.27;68.75
69713;BME280;56980;51.826;4.424;2022-11-15T11:51:33;100528.94;;;13.35;68.36
69713;BME280;56980;51.826;4.424;2022-11-15T11:57:17;100496.00;;;13.33;68.28
69713;BME280;56980;51.826;4.424;2022-11-15T11:59:55;100499.84;;;13.26;67.80
69713;BME280;56980;51.826;4.424;2022-11-15T12:02:34;100492.00;;;13.43;67.46
69713;BME280;56980;51.826;4.424;2022-11-15T12:05:32;100488.75;;;13.54;67.97
69713;BME280;56980;51.826;4.424;2022-11-15T12:08:15;100493.91;;;13.52;67.24
69713;BME280;56980;51.826;4.424;2022-11-15T12:10:48;100473.78;;;13.49;66.97
69713;BME280;56980;51.826;4.424;2022-11-15T12:13:21;100482.38;;;13.57;67.30
69713;BME280;56980;51.826;4.424;2022-11-15T12:18:44;100476.22;;;13.47;66.96
69713;BME280;56980;51.826;4.424;2022-11-15T12:24:35;100473.00;;;13.72;66.18
69713;BME280;56980;51.826;4.424;2022-11-15T12:27:17;100473.84;;;13.64;66.67
69713;BME280;56980;51.826;4.424;2022-11-15T12:29:48;100467.63;;;13.63;66.21
69713;BME280;56980;51.826;4.424;2022-11-15T12:34:51;100424.19;;;13.30;67.00
69713;BME280;56980;51.826;4.424;2022-11-15T12:45:36;100439.84;;;13.59;66.18
69713;BME280;56980;51.826;4.424;2022-11-15T12:56:17;100415.25;;;13.54;64.99
69713;BME280;56980;51.826;4.424;2022-11-15T12:58:54;100412.06;;;13.70;64.48
69713;BME280;56980;51.826;4.424;2022-11-15T13:14:53;100386.50;;;13.38;64.87
69713;BME280;56980;51.826;4.424;2022-11-15T13:19:46;100374.09;;;13.37;64.34
69713;BME280;56980;51.826;4.424;2022-11-15T13:22:11;100362.66;;;13.33;64.34
69713;BME280;56980;51.826;4.424;2022-11-15T13:24:56;100369.94;;;13.27;65.17
69713;BME280;56980;51.826;4.424;2022-11-15T13:27:24;100359.53;;;13.25;64.89
69713;BME280;56980;51.826;4.424;2022-11-15T13:29:50;100358.53;;;13.37;63.95
69713;BME280;56980;51.826;4.424;2022-11-15T13:32:16;100365.13;;;13.45;64.02
69713;BME280;56980;51.826;4.424;2022-11-15T13:34:49;100352.31;;;13.37;64.26
69713;BME280;56980;51.826;4.424;2022-11-15T13:39:46;100320.75;;;13.16;64.21
69713;BME280;56980;51.826;4.424;2022-11-15T13:42:17;100336.00;;;13.37;64.35
69713;BME280;56980;51.826;4.424;2022-11-15T13:45:03;100312.91;;;13.32;64.57
69713;BME280;56980;51.826;4.424;2022-11-15T13:47:29;100309.72;;;13.19;65.10
69713;BME280;56980;51.826;4.424;2022-11-15T13:49:57;100313.34;;;13.16;64.90
69713;BME280;56980;51.826;4.424;2022-11-15T13:52:31;100293.94;;;13.23;64.49
69713;BME280;56980;51.826;4.424;2022-11-15T13:55:04;100277.56;;;13.08;65.13
69713;BME280;56980;51.826;4.424;2022-11-15T13:57:42;100278.84;;;13.22;64.79
69713;BME280;56980;51.826;4.424;2022-11-15T14:03:12;100291.88;;;13.18;65.26
69713;BME280;56980;51.826;4.424;2022-11-15T14:05:40;100292.44;;;13.22;65.55
69713;BME280;56980;51.826;4.424;2022-11-15T14:10:40;100275.19;;;13.25;65.62
69713;BME280;56980;51.826;4.424;2022-11-15T14:13:30;100261.50;;;13.20;65.37
69713;BME280;56980;51.826;4.424;2022-11-15T14:16:16;100266.91;;;13.34;65.21
69713;BME280;56980;51.826;4.424;2022-11-15T14:18:47;100259.63;;;13.26;65.63
69713;BME280;56980;51.826;4.424;2022-11-15T14:21:15;100263.34;;;13.28;65.61
69713;BME280;56980;51.826;4.424;2022-11-15T14:23:41;100250.72;;;13.25;65.85
69713;BME280;56980;51.826;4.424;2022-11-15T14:26:25;100211.94;;;13.16;65.47
69713;BME280;56980;51.826;4.424;2022-11-15T14:28:51;100216.06;;;13.11;65.85
69713;BME280;56980;51.826;4.424;2022-11-15T14:31:16;100221.59;;;13.17;65.96
69713;BME280;56980;51.826;4.424;2022-11-15T14:33:41;100223.16;;;13.08;66.20
69713;BME280;56980;51.826;4.424;2022-11-15T14:38:38;100230.31;;;13.35;65.67
69713;BME280;56980;51.826;4.424;2022-11-15T14:41:04;100219.06;;;13.28;66.18
69713;BME280;56980;51.826;4.424;2022-11-15T14:43:31;100227.34;;;13.33;65.93
69713;BME280;56980;51.826;4.424;2022-11-15T14:45:59;100216.84;;;13.26;66.81
69713;BME280;56980;51.826;4.424;2022-11-15T14:48:25;100209.13;;;13.25;66.38
69713;BME280;56980;51.826;4.424;2022-11-15T14:50:50;100214.56;;;13.25;66.44
69713;BME280;56980;51.826;4.424;2022-11-15T14:53:17;100193.47;;;13.20;66.54
69713;BME280;56980;51.826;4.424;2022-11-15T14:55:42;100208.28;;;13.33;66.29
69713;BME280;56980;51.826;4.424;2022-11-15T14:58:08;100209.69;;;13.29;66.80